Time;durP1;ratioP1;P1;durP2;ratioP2;P2;SDS_P1;SDS_P2;PMS_P1;PMS_P2;Temp;Humidity;BMP_temperature;BMP_pressure;BME280_temperature;BME280_humidity;BME280_pressure;Samples;Min_cycle;Max_cycle;Signal;HPM_P1;HPM_P2
2021/08/22 00:02:20;;;;;;;;;4.00;4.00;;;;;20.76;63.02;101001.13;5057400;28;46053;-85
2021/08/22 00:04:46;;;;;;;;;5.00;4.00;;;;;20.83;62.83;101002.97;5072895;28;45990;-85
2021/08/22 00:07:11;;;;;;;;;6.00;5.00;;;;;20.76;63.18;100988.66;5038493;28;47710;-85
2021/08/22 00:09:37;;;;;;;;;4.00;4.00;;;;;20.82;62.74;100990.66;5038437;28;47272;-85
2021/08/22 00:15:24;;;;;;;;;5.00;4.25;;;;;20.85;62.78;100994.81;5057140;28;45615;-85
2021/08/22 00:17:51;;;;;;;;;5.00;4.50;;;;;20.74;63.08;100973.81;5072204;28;48429;-86
2021/08/22 00:20:18;;;;;;;;;5.25;4.00;;;;;21.03;62.86;101023.94;5039200;28;46368;-85
2021/08/22 00:22:43;;;;;;;;;6.50;5.75;;;;;21.03;62.84;101023.94;5072585;28;45538;-85
2021/08/22 00:25:09;;;;;;;;;5.00;5.00;;;;;20.74;63.12;100977.31;5039257;28;45693;-85
2021/08/22 00:27:34;;;;;;;;;6.00;5.00;;;;;20.77;62.90;100977.00;5057480;28;46622;-86
2021/08/22 00:30:00;;;;;;;;;7.75;5.75;;;;;20.85;63.10;100989.47;5074072;28;46945;-85
2021/08/22 00:32:25;;;;;;;;;6.00;5.00;;;;;21.03;63.54;101023.94;5039287;28;45863;-85
2021/08/22 00:34:51;;;;;;;;;5.25;5.00;;;;;20.89;63.23;101010.28;5039091;28;45617;-85
2021/08/22 00:37:16;;;;;;;;;6.25;5.75;;;;;21.02;63.13;101038.25;5039056;28;48374;-85
2021/08/22 00:39:41;;;;;;;;;4.00;4.00;;;;;20.82;63.69;101001.31;5072877;28;46912;-85
2021/08/22 00:45:29;;;;;;;;;5.00;4.25;;;;;20.85;63.72;101016.94;5056230;27;45766;-85
2021/08/22 00:47:55;;;;;;;;;5.25;5.00;;;;;20.98;63.57;101035.13;5056641;28;45663;-84
2021/08/22 00:50:20;;;;;;;;;6.00;6.00;;;;;20.88;64.05;101015.78;5038625;28;47037;-85
2021/08/22 00:52:53;;;;;;;;;7.25;6.25;;;;;20.96;63.77;101029.09;5040704;28;45675;-85
2021/08/22 00:55:19;;;;;;;;;5.75;4.75;;;;;20.64;64.01;100999.78;5073029;28;45927;-86
2021/08/22 00:57:45;;;;;;;;;9.00;7.00;;;;;20.78;63.90;101023.91;5037798;28;47578;-87
2021/08/22 01:00:13;;;;;;;;;6.00;6.00;;;;;20.76;64.70;101028.59;5071805;28;46224;-85
2021/08/22 01:02:45;;;;;;;;;9.25;7.25;;;;;20.85;64.46;101053.41;5056918;28;45515;-86
2021/08/22 01:05:13;;;;;;;;;7.50;6.50;;;;;20.81;64.53;101058.22;5072341;28;45664;-85
2021/08/22 01:07:49;;;;;;;;;7.00;6.00;;;;;20.76;64.67;101057.06;5056525;28;45517;-85
2021/08/22 01:10:21;;;;;;;;;7.00;5.50;;;;;20.46;64.84;101008.72;5039126;28;46431;-85
2021/08/22 01:12:59;;;;;;;;;5.75;5.75;;;;;20.71;65.61;101054.06;5060985;28;45710;-84
2021/08/22 01:15:26;;;;;;;;;6.00;6.00;;;;;20.52;65.47;101031.19;5050078;28;45464;-85
2021/08/22 01:17:54;;;;;;;;;8.00;7.00;;;;;20.39;65.36;101010.41;5062701;28;46817;-84
2021/08/22 01:20:57;;;;;;;;;8.00;7.25;;;;;20.62;65.33;101052.38;5044339;28;48489;-85
2021/08/22 01:23:23;;;;;;;;;6.75;6.00;;;;;20.47;65.68;101028.19;5087551;28;45433;-85
2021/08/22 01:25:50;;;;;;;;;7.50;6.00;;;;;20.33;65.68;101027.00;5073342;28;45590;-85
2021/08/22 01:28:17;;;;;;;;;6.00;6.00;;;;;20.42;65.71;101052.66;5045893;28;47257;-85
2021/08/22 01:30:46;;;;;;;;;8.00;8.00;;;;;20.52;65.60;101057.81;5054069;28;47060;-85
2021/08/22 01:33:13;;;;;;;;;5.25;5.25;;;;;20.34;65.05;101049.97;5071182;28;45548;-84
2021/08/22 01:35:40;;;;;;;;;4.50;4.50;;;;;20.47;65.48;101065.47;5073492;28;45528;-85
2021/08/22 01:38:07;;;;;;;;;5.50;5.25;;;;;20.36;65.56;101055.94;5067547;28;45554;-85
2021/08/22 01:40:34;;;;;;;;;5.75;5.75;;;;;20.33;65.68;101052.78;5039981;28;47454;-85
2021/08/22 01:43:01;;;;;;;;;5.25;5.00;;;;;20.25;65.53;101044.72;5074086;28;45790;-86
2021/08/22 01:45:29;;;;;;;;;6.00;6.00;;;;;20.13;65.47;101020.25;5039750;28;45558;-86
2021/08/22 01:47:54;;;;;;;;;6.25;5.25;;;;;19.95;65.59;100998.22;5056426;28;46378;-85
2021/08/22 01:50:22;;;;;;;;;7.00;7.00;;;;;19.98;65.63;101001.41;5055771;28;45830;-84
2021/08/22 01:52:47;;;;;;;;;6.00;5.25;;;;;20.13;65.64;101025.59;5037710;28;45804;-85
2021/08/22 01:55:13;;;;;;;;;6.00;5.00;;;;;20.20;65.57;101041.72;5037929;28;45607;-86
2021/08/22 02:01:00;;;;;;;;;6.25;5.00;;;;;20.22;65.61;101050.38;5054950;28;46006;-85
2021/08/22 02:03:49;;;;;;;;;4.25;4.00;;;;;20.22;65.83;101048.56;5055401;28;45751;-85
2021/08/22 02:06:33;;;;;;;;;5.25;5.25;;;;;20.27;65.19;101074.69;5055222;28;45523;-85
2021/08/22 02:09:02;;;;;;;;;4.75;4.75;;;;;19.94;65.17;101015.19;5053798;28;45728;-86
2021/08/22 02:11:37;;;;;;;;;6.00;4.50;;;;;20.22;65.12;101082.31;5036474;28;46838;-86
2021/08/22 02:14:05;;;;;;;;;5.00;5.00;;;;;20.00;65.12;101041.97;5037256;28;45999;-86
2021/08/22 02:16:34;;;;;;;;;4.25;4.00;;;;;19.96;64.96;101047.78;5037224;28;45715;-86
2021/08/22 02:19:01;;;;;;;;;5.50;4.00;;;;;19.86;64.69;101041.75;5054909;28;46994;-84
2021/08/22 02:21:27;;;;;;;;;5.00;4.00;;;;;19.90;64.86;101043.94;5070627;28;45558;-87
2021/08/22 02:23:54;;;;;;;;;7.00;5.25;;;;;19.76;64.83;101033.88;5036900;28;45593;-86
2021/08/22 02:26:22;;;;;;;;;4.75;4.00;;;;;20.07;64.54;101074.09;5037211;28;45739;-87
2021/08/22 02:28:58;;;;;;;;;4.50;4.00;;;;;20.01;64.51;101070.25;5070758;28;47021;-87
2021/08/22 02:31:27;;;;;;;;;5.00;5.00;;;;;20.04;64.71;101091.22;5036894;28;48209;-85
2021/08/22 02:33:53;;;;;;;;;3.75;3.00;;;;;19.91;64.40;101072.19;5037264;28;45464;-85
2021/08/22 02:36:18;;;;;;;;;4.25;4.00;;;;;19.95;64.84;101070.88;5056429;28;45471;-86
2021/08/22 02:38:44;;;;;;;;;5.25;4.75;;;;;19.80;64.67;101051.19;5038599;28;47559;-85
2021/08/22 02:41:09;;;;;;;;;5.00;4.25;;;;;19.69;64.70;101044.31;5055309;28;47691;-84
2021/08/22 02:43:35;;;;;;;;;5.00;4.00;;;;;19.95;64.21;101075.38;5038601;28;45732;-83
2021/08/22 02:46:00;;;;;;;;;3.75;3.75;;;;;19.53;64.31;101022.94;5038706;28;45566;-86
2021/08/22 02:48:25;;;;;;;;;4.25;4.25;;;;;19.88;64.45;101082.31;5037502;28;48458;-84
2021/08/22 02:50:51;;;;;;;;;3.00;3.00;;;;;19.65;64.33;101066.03;5054630;28;48161;-87
2021/08/22 02:53:16;;;;;;;;;6.50;4.50;;;;;19.78;64.06;101095.72;5076794;28;45707;-85
2021/08/22 02:55:42;;;;;;;;;4.25;4.25;;;;;19.49;63.79;101039.34;5043286;28;45758;-87
2021/08/22 02:58:07;;;;;;;;;5.50;4.75;;;;;19.49;63.64;101050.81;5042592;28;48394;-86
2021/08/22 03:00:32;;;;;;;;;7.50;5.75;;;;;19.22;63.75;101025.19;5042541;28;47659;-84
2021/08/22 03:02:58;;;;;;;;;4.00;4.00;;;;;19.42;63.44;101073.69;5071720;28;45644;-86
2021/08/22 03:05:23;;;;;;;;;5.50;5.00;;;;;19.21;63.58;101042.13;5036993;28;45643;-85
2021/08/22 03:07:48;;;;;;;;;7.00;4.50;;;;;19.29;63.83;101052.81;5035866;28;47623;-86
2021/08/22 03:10:14;;;;;;;;;6.00;5.75;;;;;19.26;63.44;101052.28;5036396;28;47105;-86
2021/08/22 03:16:01;;;;;;;;;7.00;6.25;;;;;19.23;64.08;101064.03;5054602;28;45321;-85
2021/08/22 03:18:26;;;;;;;;;6.00;4.50;;;;;19.03;63.92;101051.09;5054577;28;45661;-86
2021/08/22 03:20:52;;;;;;;;;6.00;5.25;;;;;19.03;63.63;101053.75;5039528;28;47110;-85
2021/08/22 03:23:18;;;;;;;;;5.50;5.00;;;;;19.14;63.99;101061.47;5058346;28;45640;-86
2021/08/22 03:25:43;;;;;;;;;6.50;6.50;;;;;19.07;63.65;101057.75;5058825;28;45797;-85
2021/08/22 03:31:30;;;;;;;;;6.25;6.25;;;;;18.93;63.79;101056.47;5057973;28;45848;-86
2021/08/22 03:33:56;;;;;;;;;7.00;5.75;;;;;19.04;63.97;101069.53;5040011;28;45718;-86
2021/08/22 03:36:21;;;;;;;;;8.25;7.25;;;;;19.06;63.97;101083.47;5073342;28;45546;-86
2021/08/22 03:38:47;;;;;;;;;5.00;5.00;;;;;18.79;63.69;101052.53;5058268;28;46429;-86
2021/08/22 03:41:13;;;;;;;;;8.00;7.50;;;;;18.68;63.52;101023.53;5057875;28;46090;-85
2021/08/22 03:43:38;;;;;;;;;7.50;5.00;;;;;18.98;63.53;101079.94;5039935;28;45787;-86
2021/08/22 03:46:05;;;;;;;;;8.00;7.00;;;;;18.66;63.99;101038.81;5057781;28;45626;-84
2021/08/22 03:48:31;;;;;;;;;6.75;6.00;;;;;18.78;63.55;101074.78;5039409;28;48720;-86
2021/08/22 03:50:56;;;;;;;;;6.25;6.00;;;;;18.57;63.43;101050.28;5039566;28;48024;-84
2021/08/22 03:53:22;;;;;;;;;7.75;6.00;;;;;18.70;63.56;101081.78;5040049;28;45785;-86
2021/08/22 03:55:48;;;;;;;;;6.25;5.00;;;;;18.42;63.65;101025.22;5040636;28;45650;-85
2021/08/22 04:01:36;;;;;;;;;7.50;6.25;;;;;18.73;63.48;101086.81;5057004;28;45634;-86
2021/08/22 04:04:04;;;;;;;;;5.75;5.75;;;;;18.54;63.92;101053.25;5056977;28;45532;-84
2021/08/22 04:06:30;;;;;;;;;7.75;7.00;;;;;18.61;63.52;101061.47;5038547;28;45646;-85
2021/08/22 04:08:58;;;;;;;;;6.75;6.75;;;;;18.69;63.86;101088.91;5056588;28;45685;-86
2021/08/22 04:11:24;;;;;;;;;4.50;3.50;;;;;18.51;63.80;101063.31;5038802;28;47459;-85
2021/08/22 04:13:49;;;;;;;;;7.50;7.00;;;;;18.55;63.86;101078.00;5056862;28;45649;-87
2021/08/22 04:16:14;;;;;;;;;5.00;5.00;;;;;18.37;63.60;101049.56;5057096;28;45674;-85
2021/08/22 04:18:40;;;;;;;;;7.50;6.75;;;;;18.09;64.23;101002.81;5071916;28;47613;-84
2021/08/22 04:21:05;;;;;;;;;7.00;5.75;;;;;18.61;63.80;101103.94;5072406;28;46415;-84
2021/08/22 04:23:32;;;;;;;;;6.75;5.75;;;;;18.57;63.94;101097.25;5038857;28;45769;-85
2021/08/22 04:25:58;;;;;;;;;5.75;5.00;;;;;18.30;63.88;101064.38;5057431;28;45570;-85
2021/08/22 04:31:45;;;;;;;;;6.50;6.00;;;;;18.34;64.23;101072.91;5055470;28;46070;-84
2021/08/22 04:34:10;;;;;;;;;6.25;6.00;;;;;18.16;63.79;101043.66;5038409;28;45811;-84
2021/08/22 04:36:36;;;;;;;;;8.50;6.00;;;;;18.33;64.22;101080.03;5043491;28;45519;-85
2021/08/22 04:39:01;;;;;;;;;8.75;6.50;;;;;18.36;64.09;101078.88;5068522;28;45421;-84
2021/08/22 04:41:26;;;;;;;;;6.00;5.25;;;;;18.29;63.85;101072.50;5066463;28;46569;-83
2021/08/22 04:43:52;;;;;;;;;5.75;4.50;;;;;18.44;63.69;101106.38;5048498;28;45457;-85
2021/08/22 04:46:18;;;;;;;;;5.00;5.00;;;;;18.44;63.97;101100.22;5045875;28;45649;-84
2021/08/22 04:48:43;;;;;;;;;6.75;5.00;;;;;18.29;63.90;101083.97;5060604;28;45564;-83
2021/08/22 04:51:09;;;;;;;;;7.50;6.50;;;;;18.40;64.28;101104.16;5058243;28;45811;-85
2021/08/22 04:53:34;;;;;;;;;8.00;6.50;;;;;18.32;64.08;101086.31;5058186;28;45649;-84
2021/08/22 04:56:00;;;;;;;;;6.00;5.00;;;;;18.14;63.87;101072.16;5023345;28;45910;-86
2021/08/22 05:01:47;;;;;;;;;10.50;6.50;;;;;18.29;64.19;101110.50;5056102;28;45754;-85
2021/08/22 05:04:12;;;;;;;;;6.00;6.00;;;;;18.28;64.22;101108.81;5038106;28;45950;-85
2021/08/22 05:06:38;;;;;;;;;6.00;5.75;;;;;18.12;63.94;101090.03;5071758;28;45520;-86
2021/08/22 05:09:03;;;;;;;;;6.50;5.75;;;;;18.18;64.19;101112.50;5038018;28;48444;-86
2021/08/22 05:11:30;;;;;;;;;7.75;5.50;;;;;18.12;64.41;101090.03;5037590;28;48200;-85
2021/08/22 05:13:56;;;;;;;;;6.25;5.75;;;;;18.02;64.21;101079.47;5038049;28;45767;-84
2021/08/22 05:16:21;;;;;;;;;7.00;6.00;;;;;17.91;64.17;101060.25;5037815;28;45847;-87
2021/08/22 05:18:47;;;;;;;;;10.00;7.00;;;;;17.89;63.91;101056.91;5037850;28;48396;-85
2021/08/22 05:21:12;;;;;;;;;5.75;4.75;;;;;17.79;64.39;101034.91;5055901;28;46212;-86
2021/08/22 05:23:37;;;;;;;;;6.75;6.75;;;;;18.11;64.44;101096.31;5037502;28;45734;-85
2021/08/22 05:26:03;;;;;;;;;8.75;7.00;;;;;18.12;64.11;101084.75;5055998;28;45548;-84
2021/08/22 05:31:50;;;;;;;;;5.00;4.75;;;;;18.23;64.38;101111.06;5055294;28;45639;-83
2021/08/22 05:34:15;;;;;;;;;5.50;5.00;;;;;18.22;64.36;101114.69;5055584;28;45659;-85
2021/08/22 05:36:42;;;;;;;;;6.00;5.75;;;;;18.12;64.43;101091.84;5055569;28;45716;-86
2021/08/22 05:39:08;;;;;;;;;7.50;5.75;;;;;18.11;64.78;101100.78;5037184;28;48426;-84
2021/08/22 05:41:34;;;;;;;;;5.75;5.00;;;;;17.95;64.40;101074.88;5037957;28;47219;-86
2021/08/22 05:43:59;;;;;;;;;6.25;5.00;;;;;17.89;64.18;101086.06;5038415;28;45600;-86
2021/08/22 05:46:25;;;;;;;;;7.50;5.00;;;;;18.02;64.59;101110.47;5038319;28;45625;-85
2021/08/22 05:48:50;;;;;;;;;6.50;5.50;;;;;17.84;64.74;101075.06;5037993;28;47249;-85
2021/08/22 05:51:19;;;;;;;;;6.25;6.00;;;;;18.00;64.07;101110.59;5056032;28;46223;-85
2021/08/22 05:53:46;;;;;;;;;7.00;5.00;;;;;18.06;64.43;101129.56;5071249;28;45755;-85
2021/08/22 05:56:12;;;;;;;;;6.00;6.00;;;;;17.73;64.86;101067.28;5055634;28;45939;-85
2021/08/22 06:02:00;;;;;;;;;5.75;4.50;;;;;18.07;64.26;101126.78;5055073;28;45520;-85
2021/08/22 06:04:25;;;;;;;;;8.25;8.00;;;;;17.84;64.47;101089.16;5054996;28;45664;-85
2021/08/22 06:06:51;;;;;;;;;7.00;5.00;;;;;17.99;63.94;101116.88;5036579;28;45557;-85
2021/08/22 06:09:16;;;;;;;;;5.75;4.75;;;;;17.88;64.38;101095.00;5036778;28;46758;-84
2021/08/22 06:11:42;;;;;;;;;4.75;4.25;;;;;17.89;64.24;101102.81;5070440;28;48157;-84
2021/08/22 06:14:07;;;;;;;;;4.75;4.00;;;;;17.96;64.41;101116.34;5055209;28;45534;-84
2021/08/22 06:16:33;;;;;;;;;6.00;5.00;;;;;18.19;64.11;101152.09;5036781;28;45868;-85
2021/08/22 06:18:59;;;;;;;;;3.50;3.50;;;;;17.94;64.53;101110.31;5036624;28;46525;-85
2021/08/22 06:21:24;;;;;;;;;7.50;6.00;;;;;18.05;64.25;101136.69;5055086;28;46090;-85
2021/08/22 06:23:50;;;;;;;;;6.50;5.50;;;;;17.92;64.14;101097.22;5070365;28;46004;-85
2021/08/22 06:26:15;;;;;;;;;6.00;5.00;;;;;18.06;64.02;101126.91;5055156;28;45804;-85
2021/08/22 06:32:03;;;;;;;;;6.50;5.00;;;;;18.12;64.47;101143.09;5055234;28;46062;-86
2021/08/22 06:34:28;;;;;;;;;6.50;4.50;;;;;17.93;64.29;101108.66;5070385;28;45632;-85
2021/08/22 06:36:55;;;;;;;;;4.25;4.00;;;;;18.09;64.78;101142.50;5059508;28;45661;-86
2021/08/22 06:39:20;;;;;;;;;6.00;5.00;;;;;17.83;64.78;101108.69;5040470;28;47515;-85
2021/08/22 06:41:46;;;;;;;;;7.75;5.75;;;;;18.20;64.69;101161.75;5041125;28;45440;-84
2021/08/22 06:47:59;;;;;;;;;5.25;4.75;;;;;18.06;64.67;101141.00;5053841;28;45718;-84
2021/08/22 06:50:25;;;;;;;;;3.75;3.75;;;;;17.97;64.76;101120.66;5070822;28;47794;-85
2021/08/22 06:52:51;;;;;;;;;5.75;5.00;;;;;18.11;64.27;101143.22;5070887;28;47100;-85
2021/08/22 06:55:17;;;;;;;;;8.75;5.25;;;;;18.24;64.72;101170.28;5058818;28;45536;-85
2021/08/22 06:57:42;;;;;;;;;7.25;5.00;;;;;18.33;64.54;101182.66;5058788;28;45610;-84
2021/08/22 07:00:09;;;;;;;;;4.00;4.00;;;;;18.27;64.47;101175.28;5041697;28;47896;-84
2021/08/22 07:02:34;;;;;;;;;5.00;5.00;;;;;18.12;64.68;101151.03;5040303;28;46462;-85
2021/08/22 07:04:59;;;;;;;;;4.00;3.00;;;;;18.13;64.57;101141.28;5039564;28;45604;-85
2021/08/22 07:07:25;;;;;;;;;4.75;4.75;;;;;18.28;64.84;101159.22;5073629;28;45524;-85
2021/08/22 07:09:50;;;;;;;;;6.00;5.00;;;;;18.09;64.61;101148.66;5058018;28;45754;-87
2021/08/22 07:12:15;;;;;;;;;4.75;4.00;;;;;18.31;64.59;101174.84;5040089;28;46145;-85
2021/08/22 07:14:42;;;;;;;;;2.50;2.00;;;;;18.51;64.35;101198.66;5064591;28;45554;-85
2021/08/22 07:17:07;;;;;;;;;5.50;3.50;;;;;18.54;64.64;101206.31;5064470;28;45554;-85
2021/08/22 07:19:33;;;;;;;;;5.00;4.00;;;;;18.21;64.38;101136.91;5045973;28;48327;-85
2021/08/22 07:21:58;;;;;;;;;5.50;4.00;;;;;18.30;64.48;101156.44;5062572;28;46315;-86
2021/08/22 07:24:24;;;;;;;;;0.50;0.00;;;;;18.32;64.35;101157.09;5045765;28;45608;-85
2021/08/22 07:26:49;;;;;;;;;4.00;3.50;;;;;18.54;64.01;101193.91;5047166;28;45774;-84
2021/08/22 07:32:37;;;;;;;;;4.25;4.00;;;;;18.52;64.06;101187.88;5066428;28;45521;-84
2021/08/22 07:35:02;;;;;;;;;5.00;5.00;;;;;18.53;63.94;101196.69;5067179;28;45470;-84
2021/08/22 07:37:28;;;;;;;;;5.50;4.25;;;;;18.48;63.94;101191.81;5049873;28;45588;-84
2021/08/22 07:39:53;;;;;;;;;5.00;5.00;;;;;18.52;64.27;101197.66;5066159;28;45554;-86
2021/08/22 07:42:18;;;;;;;;;3.00;2.50;;;;;18.35;63.89;101170.09;5052877;28;47139;-86
2021/08/22 07:44:44;;;;;;;;;4.75;4.00;;;;;18.39;63.75;101196.19;5071771;28;45627;-85
2021/08/22 07:47:09;;;;;;;;;4.00;3.00;;;;;18.68;63.92;101221.78;5058074;28;46034;-86
2021/08/22 07:49:34;;;;;;;;;5.00;2.75;;;;;18.70;63.67;101222.50;5064917;28;47501;-86
2021/08/22 07:52:00;;;;;;;;;4.00;3.50;;;;;18.51;63.57;101186.22;5064790;28;47257;-86
2021/08/22 07:54:25;;;;;;;;;3.25;3.00;;;;;18.52;63.56;101174.59;5079956;28;45204;-85
2021/08/22 07:56:51;;;;;;;;;4.50;3.00;;;;;18.77;63.76;101205.84;5064972;28;45784;-86
2021/08/22 08:02:38;;;;;;;;;2.00;2.00;;;;;18.60;63.10;101171.28;5085493;28;45160;-85
2021/08/22 08:05:04;;;;;;;;;3.00;3.00;;;;;18.54;62.94;101150.59;5085319;28;45045;-85
2021/08/22 08:07:29;;;;;;;;;4.00;3.25;;;;;18.88;63.18;101212.78;5066900;28;45630;-86
2021/08/22 08:09:55;;;;;;;;;3.00;2.50;;;;;19.04;62.88;101220.09;5065998;28;47695;-84
2021/08/22 08:12:20;;;;;;;;;3.00;2.00;;;;;18.96;62.88;101190.78;5083561;28;45238;-86
2021/08/22 08:14:46;;;;;;;;;3.00;2.00;;;;;19.13;62.68;101217.38;5076205;28;45526;-86
2021/08/22 08:17:12;;;;;;;;;3.50;3.50;;;;;19.15;62.49;101233.16;5057718;28;45575;-84
2021/08/22 08:19:37;;;;;;;;;5.00;4.00;;;;;19.17;62.36;101242.66;5060133;28;47569;-85
2021/08/22 08:22:05;;;;;;;;;4.00;3.00;;;;;19.01;62.54;101209.75;5051629;28;47600;-84
2021/08/22 08:24:30;;;;;;;;;3.50;2.75;;;;;19.21;62.58;101252.00;5046650;28;45460;-86
2021/08/22 08:26:56;;;;;;;;;5.75;3.75;;;;;19.26;62.20;101249.75;5081756;28;45543;-85
2021/08/22 08:32:43;;;;;;;;;3.25;3.25;;;;;19.14;62.05;101204.94;5064072;28;45596;-83
2021/08/22 08:35:12;;;;;;;;;3.00;3.00;;;;;18.97;61.57;101187.97;5068198;28;45242;-85
2021/08/22 08:37:42;;;;;;;;;6.00;4.50;;;;;19.09;61.67;101215.16;5048756;28;45976;-86
2021/08/22 08:40:17;;;;;;;;;2.25;1.75;;;;;18.84;61.65;101174.19;5047307;28;47463;-85
2021/08/22 08:42:51;;;;;;;;;3.75;3.00;;;;;19.36;61.62;101241.69;5046387;28;47082;-86
2021/08/22 08:45:20;;;;;;;;;3.00;3.00;;;;;19.38;61.27;101258.31;5074532;28;45731;-86
2021/08/22 08:47:47;;;;;;;;;4.00;4.00;;;;;19.26;61.59;101238.28;5040575;28;45559;-87
2021/08/22 08:50:23;;;;;;;;;2.00;1.75;;;;;19.42;61.15;101230.47;5040405;28;46733;-87
2021/08/22 08:52:51;;;;;;;;;3.00;3.00;;;;;19.24;61.22;101222.47;5040183;28;48813;-86
2021/08/22 08:55:20;;;;;;;;;4.50;3.00;;;;;19.32;61.24;101232.38;5058380;28;45581;-86
2021/08/22 08:57:46;;;;;;;;;4.25;3.00;;;;;19.07;60.82;101167.50;5073401;28;45958;-85
2021/08/22 09:00:16;;;;;;;;;3.75;3.50;;;;;19.34;61.06;101213.59;5073370;28;47586;-86
2021/08/22 09:02:41;;;;;;;;;2.25;2.25;;;;;19.66;61.31;101251.16;5038314;28;46028;-85
2021/08/22 09:05:29;;;;;;;;;3.50;3.00;;;;;19.46;60.46;101210.59;5057246;28;45890;-85
2021/08/22 09:08:19;;;;;;;;;2.75;2.75;;;;;19.83;60.57;101258.31;5057514;28;45443;-85
2021/08/22 09:11:03;;;;;;;;;2.75;2.50;;;;;19.87;60.05;101245.53;5072434;28;47091;-87
2021/08/22 09:14:06;;;;;;;;;3.00;2.25;;;;;19.95;60.01;101249.09;5071748;28;47429;-84
2021/08/22 09:17:09;;;;;;;;;4.25;3.00;;;;;20.02;60.05;101242.19;5071257;28;45702;-85
2021/08/22 09:20:12;;;;;;;;;2.25;2.00;;;;;20.12;59.93;101263.38;5072214;28;45703;-88
2021/08/22 09:23:00;;;;;;;;;2.25;2.25;;;;;20.18;59.59;101253.94;5056831;28;46554;-83
2021/08/22 09:26:03;;;;;;;;;3.00;2.00;;;;;20.26;59.45;101244.16;5038600;28;47501;-85
2021/08/22 09:32:27;;;;;;;;;2.00;1.50;;;;;20.37;58.43;101262.56;5055965;28;45739;-85
2021/08/22 09:35:14;;;;;;;;;1.75;1.75;;;;;20.38;58.17;101258.94;5071124;28;48680;-86
2021/08/22 09:38:10;;;;;;;;;1.75;1.25;;;;;20.40;57.94;101262.28;5071483;28;48404;-83
2021/08/22 09:40:36;;;;;;;;;2.00;1.75;;;;;20.42;57.96;101256.78;5056176;28;45574;-86
2021/08/22 09:43:39;;;;;;;;;0.25;0.25;;;;;20.43;57.55;101263.78;5072005;28;45573;-84
2021/08/22 09:46:42;;;;;;;;;2.50;1.50;;;;;20.44;57.39;101294.75;5056809;28;45483;-84
2021/08/22 09:49:27;;;;;;;;;1.50;1.50;;;;;20.40;57.38;101285.41;5072070;28;46920;-85
2021/08/22 09:52:18;;;;;;;;;2.00;1.50;;;;;20.32;64.63;101296.81;5058400;28;45652;-88
2021/08/22 09:54:44;;;;;;;;;0.75;0.75;;;;;20.15;69.21;101287.00;5076714;28;45598;-84
2021/08/22 10:00:56;;;;;;;;;0.00;0.00;;;;;19.64;67.02;101269.09;5037762;28;45997;-85
2021/08/22 10:03:39;;;;;;;;;1.00;1.00;;;;;19.49;66.98;101282.06;5044086;28;45346;-86
2021/08/22 10:06:26;;;;;;;;;0.75;0.00;;;;;19.41;67.55;101284.59;5042582;28;45550;-86
2021/08/22 10:09:00;;;;;;;;;1.00;0.00;;;;;19.28;68.01;101273.50;5017689;28;46577;-85
2021/08/22 10:11:31;;;;;;;;;1.00;0.00;;;;;19.24;68.20;101278.28;5033718;28;46716;-84
2021/08/22 10:17:22;;;;;;;;;0.25;0.25;;;;;18.89;68.49;101221.56;5033107;27;45564;-86
2021/08/22 10:19:49;;;;;;;;;1.00;0.75;;;;;19.14;69.37;101255.41;5017636;28;47970;-85
2021/08/22 10:22:19;;;;;;;;;2.00;0.00;;;;;19.24;68.51;101280.09;5025614;28;47122;-85
2021/08/22 10:24:54;;;;;;;;;1.00;0.75;;;;;19.25;69.22;101289.75;5028407;28;45697;-86
2021/08/22 10:27:36;;;;;;;;;0.75;0.75;;;;;19.26;69.37;101280.78;5027589;28;45339;-86
2021/08/22 10:33:27;;;;;;;;;1.00;1.00;;;;;18.97;69.54;101208.38;5038540;28;45799;-82
2021/08/22 10:36:29;;;;;;;;;1.50;0.75;;;;;19.28;69.26;101244.25;5042276;28;45514;-87
2021/08/22 10:39:25;;;;;;;;;1.50;1.50;;;;;19.52;69.35;101264.97;5064404;28;45688;-87
2021/08/22 10:41:55;;;;;;;;;0.75;0.75;;;;;19.37;68.77;101222.13;5062206;28;45697;-86
2021/08/22 10:44:33;;;;;;;;;1.00;1.00;;;;;19.73;69.31;101265.53;5063343;28;46247;-85
2021/08/22 10:47:22;;;;;;;;;1.00;0.00;;;;;19.56;69.52;101218.50;5074314;28;45672;-85
2021/08/22 10:49:50;;;;;;;;;1.00;1.00;;;;;19.89;71.12;101264.84;5034355;28;45507;-88
2021/08/22 10:52:25;;;;;;;;;0.00;0.00;;;;;19.93;68.91;101269.69;5071085;28;46963;-87
2021/08/22 10:55:05;;;;;;;;;2.25;1.00;;;;;19.99;70.06;101269.06;5055305;28;46391;-84
2021/08/22 10:57:49;;;;;;;;;1.00;1.00;;;;;20.08;68.21;101254.03;5055455;28;45529;-84
2021/08/22 11:00:25;;;;;;;;;0.50;0.00;;;;;20.16;68.20;101274.53;5056016;28;45464;-84
2021/08/22 11:02:55;;;;;;;;;0.25;0.25;;;;;20.25;68.25;101278.91;5055803;28;45615;-86
2021/08/22 11:05:31;;;;;;;;;1.50;1.00;;;;;20.15;68.19;101241.75;5055947;28;46055;-88
2021/08/22 11:08:11;;;;;;;;;1.00;1.00;;;;;20.05;67.94;101209.09;5056021;28;45634;-82
2021/08/22 11:10:37;;;;;;;;;1.50;1.00;;;;;20.43;67.21;101259.28;5071593;28;45574;-85
2021/08/22 11:13:02;;;;;;;;;1.00;1.00;;;;;20.34;67.99;101224.81;5054869;28;46003;-84
2021/08/22 11:15:29;;;;;;;;;2.00;1.75;;;;;20.56;66.82;101253.56;5054305;28;45608;-86
2021/08/22 11:18:00;;;;;;;;;1.00;1.00;;;;;20.60;67.39;101260.22;5036060;28;45656;-84
2021/08/22 11:20:30;;;;;;;;;2.00;1.00;;;;;20.67;67.13;101255.94;5055078;28;45740;-85
2021/08/22 11:23:04;;;;;;;;;3.00;2.00;;;;;20.75;66.89;101252.47;5053932;28;46571;-83
2021/08/22 11:25:30;;;;;;;;;0.50;0.00;;;;;20.57;65.86;101217.94;5053829;28;46425;-86
2021/08/22 11:31:29;;;;;;;;;2.25;2.00;;;;;20.92;65.72;101248.91;5013521;28;45711;-85
2021/08/22 11:33:55;;;;;;;;;1.25;1.25;;;;;21.08;66.24;101256.13;4995881;28;47607;-84
2021/08/22 11:36:27;;;;;;;;;1.00;1.00;;;;;21.12;65.53;101247.63;5012354;28;46239;-82
2021/08/22 11:39:09;;;;;;;;;1.75;1.50;;;;;21.07;64.96;101235.78;5013027;28;45525;-83
2021/08/22 11:41:36;;;;;;;;;2.00;2.00;;;;;21.06;64.76;101231.44;5016250;28;45570;-84
2021/08/22 11:47:22;;;;;;;;;1.25;1.00;;;;;21.29;64.91;101251.22;5014708;28;45865;-83
2021/08/22 11:49:48;;;;;;;;;3.00;3.00;;;;;21.21;64.62;101235.22;5015131;28;45772;-84
2021/08/22 11:52:18;;;;;;;;;1.75;1.50;;;;;21.25;64.37;101241.88;5015340;28;45756;-82
2021/08/22 11:54:44;;;;;;;;;4.50;4.50;;;;;21.26;64.86;101232.91;5015124;28;45868;-84
2021/08/22 11:57:21;;;;;;;;;1.25;1.25;;;;;21.48;64.46;101264.28;5016712;28;46215;-83
2021/08/22 12:03:16;;;;;;;;;1.00;1.00;;;;;21.37;63.22;101221.94;5016164;28;45569;-85
2021/08/22 12:06:20;;;;;;;;;2.00;1.00;;;;;21.64;63.11;101272.31;5014736;28;46524;-84
2021/08/22 12:08:49;;;;;;;;;0.75;0.75;;;;;21.55;63.42;101259.94;4978545;28;48617;-86
2021/08/22 12:11:17;;;;;;;;;1.25;1.00;;;;;21.68;63.01;101272.81;4995408;28;45694;-83
2021/08/22 12:13:45;;;;;;;;;1.25;1.00;;;;;21.63;62.50;101267.13;4995802;28;45755;-88
2021/08/22 12:16:30;;;;;;;;;1.00;1.00;;;;;21.74;61.90;101269.47;4995536;28;45843;-84
2021/08/22 12:19:17;;;;;;;;;1.50;1.00;;;;;21.78;61.85;101265.47;4979272;28;48124;-84
2021/08/22 12:21:43;;;;;;;;;2.00;1.00;;;;;21.59;61.77;101233.78;4989166;28;45658;-85
2021/08/22 12:24:22;;;;;;;;;1.00;1.00;;;;;21.67;62.78;101252.47;4996251;28;45692;-85
2021/08/22 12:26:59;;;;;;;;;1.50;1.25;;;;;21.88;61.05;101294.66;4979565;28;47458;-86
2021/08/22 12:29:30;;;;;;;;;1.00;1.00;;;;;21.88;61.50;101303.50;4996084;28;46882;-86
2021/08/22 12:32:06;;;;;;;;;1.00;1.00;;;;;21.88;60.41;101287.50;4981634;28;45629;-84
2021/08/22 12:34:31;;;;;;;;;1.75;1.00;;;;;21.75;61.33;101265.81;4998569;28;45561;-82
2021/08/22 12:37:11;;;;;;;;;2.00;2.00;;;;;21.77;59.71;101269.13;4997752;28;47537;-84
2021/08/22 12:39:37;;;;;;;;;1.50;1.50;;;;;21.64;60.86;101250.97;4984142;28;47212;-83
2021/08/22 12:42:03;;;;;;;;;2.25;1.50;;;;;21.78;61.75;101282.31;5003356;28;45573;-86
2021/08/22 12:44:28;;;;;;;;;2.00;1.50;;;;;21.86;60.37;101275.34;5003638;28;46098;-84
2021/08/22 12:46:57;;;;;;;;;1.00;1.00;;;;;21.92;60.23;101298.66;5065032;28;45715;-84
2021/08/22 12:49:23;;;;;;;;;1.00;1.00;;;;;21.95;59.92;101299.22;5047749;28;46708;-85
2021/08/22 12:51:54;;;;;;;;;3.00;1.50;;;;;21.72;59.58;101298.13;5025731;28;45628;-85